createdAt,value
2016-04-22T00:00:58.210Z,991.88
2016-04-22T00:01:58.213Z,991.88
2016-04-22T00:02:58.216Z,991.86
2016-04-22T00:03:58.212Z,991.88
2016-04-22T00:04:58.214Z,991.91
2016-04-22T00:05:58.217Z,991.88
2016-04-22T00:06:58.204Z,991.88
2016-04-22T00:07:58.207Z,991.9
2016-04-22T00:08:58.209Z,991.87
2016-04-22T00:09:58.212Z,991.85
2016-04-22T00:10:58.215Z,991.87
2016-04-22T00:11:58.217Z,991.82
2016-04-22T00:12:58.205Z,991.84
2016-04-22T00:13:58.223Z,991.85
2016-04-22T00:14:58.211Z,991.82
2016-04-22T00:15:58.213Z,991.84
2016-04-22T00:16:58.216Z,991.81
2016-04-22T00:17:58.218Z,991.8
2016-04-22T00:18:58.206Z,991.78
2016-04-22T00:19:58.208Z,991.8
2016-04-22T00:20:58.211Z,991.79
2016-04-22T00:21:58.213Z,991.77
2016-04-22T00:22:58.216Z,991.76
2016-04-22T00:23:58.204Z,991.78
2016-04-22T00:24:58.207Z,991.76
2016-04-22T00:25:58.224Z,991.74
2016-04-22T00:26:58.212Z,991.76
2016-04-22T00:27:58.215Z,991.67
2016-04-22T00:28:58.217Z,991.71
2016-04-22T00:29:58.204Z,991.75
2016-04-22T00:30:58.223Z,991.73
2016-04-22T00:31:58.210Z,991.7
2016-04-22T00:32:58.212Z,991.72
2016-04-22T00:33:58.215Z,991.69
2016-04-22T00:34:58.217Z,991.69
2016-04-22T00:35:58.221Z,991.69
2016-04-22T00:36:58.224Z,991.65
2016-04-22T00:37:58.211Z,991.69
2016-04-22T00:38:58.214Z,991.67
2016-04-22T00:39:58.216Z,991.63
2016-04-22T00:40:58.219Z,991.63
2016-04-22T00:41:58.222Z,991.67
2016-04-22T00:42:58.209Z,991.67
2016-04-22T00:43:58.226Z,991.69
2016-04-22T00:44:58.215Z,991.71
2016-04-22T00:45:58.217Z,991.71
2016-04-22T00:46:58.220Z,991.75
2016-04-22T00:47:58.222Z,991.77
2016-04-22T00:48:58.209Z,991.74
2016-04-22T00:49:58.211Z,991.73
2016-04-22T00:50:58.215Z,991.73
2016-04-22T00:51:58.217Z,991.77
2016-04-22T00:52:58.204Z,991.78
2016-04-22T00:53:58.207Z,991.77
2016-04-22T00:54:58.210Z,991.78
2016-04-22T00:55:58.212Z,991.75
2016-04-22T00:56:58.214Z,991.72
2016-04-22T00:57:58.217Z,991.79
2016-04-22T00:58:58.205Z,991.76
2016-04-22T00:59:58.223Z,991.77
2016-04-22T01:00:58.210Z,991.74
2016-04-22T01:01:58.213Z,991.77
2016-04-22T01:02:58.215Z,991.75
2016-04-22T01:03:58.218Z,991.75
2016-04-22T01:04:58.221Z,991.74
2016-04-22T01:05:58.224Z,991.75
2016-04-22T01:06:58.210Z,991.74
2016-04-22T01:07:58.229Z,991.75
2016-04-22T01:08:58.216Z,991.75
2016-04-22T01:09:58.218Z,991.76
2016-04-22T01:10:58.221Z,991.76
2016-04-22T01:11:58.208Z,991.77
2016-04-22T01:12:58.211Z,991.77
2016-04-22T01:13:58.213Z,991.75
2016-04-22T01:14:58.216Z,991.7
2016-04-22T01:15:58.219Z,991.7
2016-04-22T01:16:58.221Z,991.68
2016-04-22T01:17:58.224Z,991.7
2016-04-22T01:18:58.212Z,991.69
2016-04-22T01:19:58.229Z,991.68
2016-04-22T01:20:58.217Z,991.69
2016-04-22T01:21:58.220Z,991.7
2016-04-22T01:22:58.223Z,991.7
2016-04-22T01:23:58.209Z,991.68
2016-04-22T01:24:58.212Z,991.71
2016-04-22T01:25:58.215Z,991.67
2016-04-22T01:26:58.217Z,991.7
2016-04-22T01:27:58.220Z,991.7
2016-04-22T01:28:58.208Z,991.69
2016-04-22T01:29:58.210Z,991.66
2016-04-22T01:30:58.213Z,991.6
2016-04-22T01:31:58.200Z,991.64
2016-04-22T01:32:58.202Z,991.62
2016-04-22T01:33:58.205Z,991.65
2016-04-22T01:34:58.208Z,991.63
2016-04-22T01:35:58.211Z,991.61
2016-04-22T01:36:58.213Z,991.6
2016-04-22T01:37:58.216Z,991.61
2016-04-22T01:38:58.219Z,991.66
2016-04-22T01:39:58.205Z,991.64
2016-04-22T01:40:58.224Z,991.64
2016-04-22T01:41:58.211Z,991.61
2016-04-22T01:42:58.199Z,991.66
2016-04-22T01:43:58.201Z,991.63
2016-04-22T01:44:58.204Z,991.63
2016-04-22T01:45:58.206Z,991.57
2016-04-22T01:46:58.209Z,991.6
2016-04-22T01:47:58.212Z,991.57
2016-04-22T01:48:58.199Z,991.54
2016-04-22T01:49:58.201Z,991.58
2016-04-22T01:50:58.204Z,991.54
2016-04-22T01:51:58.207Z,991.55
2016-04-22T01:52:58.193Z,991.57
2016-04-22T01:53:58.196Z,991.57
2016-04-22T01:54:58.199Z,991.54
2016-04-22T01:55:58.202Z,991.51
2016-04-22T01:56:58.204Z,991.53
2016-04-22T01:57:58.207Z,991.5
2016-04-22T01:58:58.209Z,991.52
2016-04-22T01:59:58.197Z,991.57
2016-04-22T02:00:58.200Z,991.52
2016-04-22T02:01:58.203Z,991.51
2016-04-22T02:02:58.189Z,991.52
2016-04-22T02:03:58.192Z,991.49
2016-04-22T02:04:58.195Z,991.49
2016-04-22T02:05:58.197Z,991.5
2016-04-22T02:06:58.185Z,991.44
2016-04-22T02:07:58.188Z,991.5
2016-04-22T02:08:58.191Z,991.45
2016-04-22T02:09:58.193Z,991.46
2016-04-22T02:10:58.180Z,991.45
2016-04-22T02:11:58.183Z,991.45
2016-04-22T02:12:58.216Z,991.44
2016-04-22T02:13:58.188Z,991.45
2016-04-22T02:14:58.191Z,991.46
2016-04-22T02:15:58.177Z,991.45
2016-04-22T02:16:58.180Z,991.44
2016-04-22T02:17:58.183Z,991.4
2016-04-22T02:18:58.185Z,991.4
2016-04-22T02:19:58.173Z,991.41
2016-04-22T02:20:58.176Z,991.38
2016-04-22T02:21:58.179Z,991.41
2016-04-22T02:22:58.165Z,991.37
2016-04-22T02:23:58.168Z,991.34
2016-04-22T02:24:58.170Z,991.33
2016-04-22T02:25:58.173Z,991.33
2016-04-22T02:26:58.176Z,991.32
2016-04-22T02:27:58.163Z,991.35
2016-04-22T02:28:58.165Z,991.35
2016-04-22T02:29:58.168Z,991.36
2016-04-22T02:30:58.171Z,991.34
2016-04-22T02:31:58.173Z,991.34
2016-04-22T02:32:58.161Z,991.33
2016-04-22T02:33:58.178Z,991.36
2016-04-22T02:34:58.166Z,991.3
2016-04-22T02:35:58.169Z,991.36
2016-04-22T02:36:58.156Z,991.35
2016-04-22T02:37:58.158Z,991.33
2016-04-22T02:38:58.161Z,991.3
2016-04-22T02:39:58.149Z,991.28
2016-04-22T02:40:58.151Z,991.28
2016-04-22T02:41:58.154Z,991.29
2016-04-22T02:42:58.172Z,991.28
2016-04-22T02:43:58.144Z,991.3
2016-04-22T02:44:58.146Z,991.28
2016-04-22T02:45:58.149Z,991.29
2016-04-22T02:46:58.151Z,991.29
2016-04-22T02:47:58.138Z,991.27
2016-04-22T02:48:58.141Z,991.27
2016-04-22T02:49:58.143Z,991.29
2016-04-22T02:50:58.146Z,991.3
2016-04-22T02:51:58.149Z,991.3
2016-04-22T02:52:58.137Z,991.31
2016-04-22T02:53:58.139Z,991.28
2016-04-22T02:54:58.142Z,991.27
2016-04-22T02:55:58.128Z,991.28
2016-04-22T02:56:58.132Z,991.27
2016-04-22T02:57:58.135Z,991.3
2016-04-22T02:58:58.136Z,991.29
2016-04-22T02:59:58.124Z,991.31
2016-04-22T03:00:58.126Z,991.28
2016-04-22T03:01:58.129Z,991.31
2016-04-22T03:02:58.132Z,991.31
2016-04-22T03:03:58.134Z,991.33
2016-04-22T03:04:58.137Z,991.33
2016-04-22T03:05:58.124Z,991.31
2016-04-22T03:06:58.142Z,991.31
2016-04-22T03:07:58.114Z,991.27
2016-04-22T03:08:58.132Z,991.26
2016-04-22T03:09:58.119Z,991.25
2016-04-22T03:10:58.122Z,991.26
2016-04-22T03:11:58.110Z,991.24
2016-04-22T03:12:58.113Z,991.28
2016-04-22T03:13:58.115Z,991.23
2016-04-22T03:14:58.118Z,991.23
2016-04-22T03:15:58.105Z,991.21
2016-04-22T03:16:58.107Z,991.22
2016-04-22T03:17:58.110Z,991.2
2016-04-22T03:18:58.113Z,991.19
2016-04-22T03:19:58.115Z,991.21
2016-04-22T03:20:58.102Z,991.19
2016-04-22T03:21:58.105Z,991.18
2016-04-22T03:22:58.092Z,991.14
2016-04-22T03:23:58.095Z,991.16
2016-04-22T03:24:58.098Z,991.17
2016-04-22T03:25:58.101Z,991.15
2016-04-22T03:26:58.088Z,991.13
2016-04-22T03:27:58.090Z,991.1
2016-04-22T03:28:58.093Z,991.15
2016-04-22T03:29:58.095Z,991.14
2016-04-22T03:30:58.082Z,991.15
2016-04-22T03:31:58.085Z,991.11
2016-04-22T03:32:58.103Z,991.11
2016-04-22T03:33:58.075Z,991.14
2016-04-22T03:34:58.077Z,991.15
2016-04-22T03:35:58.080Z,991.15
2016-04-22T03:36:58.083Z,991.15
2016-04-22T03:37:58.085Z,991.15
2016-04-22T03:38:58.073Z,991.17
2016-04-22T03:39:58.075Z,991.17
2016-04-22T03:40:58.078Z,991.15
2016-04-22T03:41:58.081Z,991.19
2016-04-22T03:42:58.068Z,991.14
2016-04-22T03:43:58.071Z,991.19
2016-04-22T03:44:58.074Z,991.18
2016-04-22T03:45:58.060Z,991.15
2016-04-22T03:46:58.063Z,991.13
2016-04-22T03:47:58.066Z,991.16
2016-04-22T03:48:58.052Z,991.18
2016-04-22T03:49:58.055Z,991.21
2016-04-22T03:50:58.057Z,991.21
2016-04-22T03:51:58.060Z,991.18
2016-04-22T03:52:58.048Z,991.19
2016-04-22T03:53:58.051Z,991.19
2016-04-22T03:54:58.069Z,991.23
2016-04-22T03:55:58.041Z,991.23
2016-04-22T03:56:58.043Z,991.24
2016-04-22T03:57:58.046Z,991.27
2016-04-22T03:58:58.032Z,991.24
2016-04-22T03:59:58.035Z,991.22
2016-04-22T04:00:58.038Z,991.24
2016-04-22T04:01:58.025Z,991.27
2016-04-22T04:02:58.028Z,991.32
2016-04-22T04:03:58.030Z,991.31
2016-04-22T04:04:58.033Z,991.35
2016-04-22T04:05:58.036Z,991.32
2016-04-22T04:06:58.022Z,991.28
2016-04-22T04:07:58.026Z,991.32
2016-04-22T04:08:58.013Z,991.33
2016-04-22T04:09:58.016Z,991.31
2016-04-22T04:10:58.019Z,991.33
2016-04-22T04:11:58.021Z,991.39
2016-04-22T04:12:58.024Z,991.4
2016-04-22T04:13:58.010Z,991.38
2016-04-22T04:14:58.013Z,991.37
2016-04-22T04:15:58.016Z,991.36
2016-04-22T04:16:58.002Z,991.36
2016-04-22T04:17:58.021Z,991.36
2016-04-22T04:18:58.008Z,991.37
2016-04-22T04:19:58.010Z,991.33
2016-04-22T04:20:57.998Z,991.34
2016-04-22T04:21:58.016Z,991.39
2016-04-22T04:22:58.018Z,991.38
2016-04-22T04:23:58.043Z,991.34
2016-04-22T04:24:58.102Z,991.34
2016-04-22T04:25:58.111Z,991.34
2016-04-22T04:26:58.153Z,991.3
2016-04-22T04:27:58.184Z,991.28
2016-04-22T04:28:58.201Z,991.3
2016-04-22T04:29:58.235Z,991.31
2016-04-22T04:30:58.220Z,991.29
2016-04-22T04:31:58.268Z,991.32
2016-04-22T04:32:58.234Z,991.27
2016-04-22T04:33:58.273Z,991.27
2016-04-22T04:34:58.250Z,991.29
2016-04-22T04:35:58.257Z,991.26
2016-04-22T04:36:58.266Z,991.29
2016-04-22T04:37:58.256Z,991.27
2016-04-22T04:38:58.261Z,991.27
2016-04-22T04:39:58.266Z,991.27
2016-04-22T04:40:58.254Z,991.28
2016-04-22T04:41:58.275Z,991.27
2016-04-22T04:42:58.263Z,991.27
2016-04-22T04:43:58.266Z,991.28
2016-04-22T04:44:58.269Z,991.24
2016-04-22T04:45:58.256Z,991.21
2016-04-22T04:46:58.259Z,991.28
2016-04-22T04:47:58.247Z,991.29
2016-04-22T04:48:58.266Z,991.26
2016-04-22T04:49:58.254Z,991.26
2016-04-22T04:50:58.272Z,991.27
2016-04-22T04:51:58.260Z,991.32
2016-04-22T04:52:58.247Z,991.28
2016-04-22T04:53:58.250Z,991.31
2016-04-22T04:54:58.252Z,991.33
2016-04-22T04:55:58.239Z,991.35
2016-04-22T04:56:58.257Z,991.34
2016-04-22T04:57:58.244Z,991.32
2016-04-22T04:58:58.247Z,991.34
2016-04-22T04:59:58.234Z,991.29
2016-04-22T05:00:58.237Z,991.31
2016-04-22T05:01:58.271Z,991.34
2016-04-22T05:02:58.242Z,991.31
2016-04-22T05:03:58.245Z,991.35
2016-04-22T05:04:58.248Z,991.34
2016-04-22T05:05:58.235Z,991.29
2016-04-22T05:06:58.238Z,991.33
2016-04-22T05:07:58.240Z,991.34
2016-04-22T05:08:58.243Z,991.26
2016-04-22T05:09:58.246Z,991.31
2016-04-22T05:10:58.234Z,991.29
2016-04-22T05:11:58.237Z,991.32
2016-04-22T05:12:58.239Z,991.34
2016-04-22T05:13:58.242Z,991.34
2016-04-22T05:14:58.245Z,991.32
2016-04-22T05:15:58.248Z,991.36
2016-04-22T05:16:58.250Z,991.35
2016-04-22T05:17:58.253Z,991.33
2016-04-22T05:18:58.256Z,991.37
2016-04-22T05:19:58.259Z,991.31
2016-04-22T05:20:58.245Z,991.31
2016-04-22T05:21:58.248Z,991.3
2016-04-22T05:22:58.267Z,991.28
2016-04-22T05:23:58.253Z,991.33
2016-04-22T05:24:58.256Z,991.34
2016-04-22T05:25:58.258Z,991.33
2016-04-22T05:26:58.261Z,991.33
2016-04-22T05:27:58.264Z,991.31
2016-04-22T05:28:58.267Z,991.35
2016-04-22T05:29:58.269Z,991.33
2016-04-22T05:30:58.272Z,991.38
2016-04-22T05:31:58.259Z,991.36
2016-04-22T05:32:58.293Z,991.39
2016-04-22T05:33:58.280Z,991.44
2016-04-22T05:34:58.267Z,991.41
2016-04-22T05:35:58.269Z,991.48
2016-04-22T05:36:58.272Z,991.38
2016-04-22T05:37:58.275Z,991.37
2016-04-22T05:38:58.294Z,991.39
2016-04-22T05:39:58.281Z,991.36
2016-04-22T05:40:58.282Z,991.34
2016-04-22T05:41:58.286Z,991.38
2016-04-22T05:42:58.288Z,991.43
2016-04-22T05:43:58.276Z,991.41
2016-04-22T05:44:58.294Z,991.47
2016-04-22T05:45:58.296Z,991.44
2016-04-22T05:46:58.299Z,991.44
2016-04-22T05:47:58.302Z,991.44
2016-04-22T05:48:58.304Z,991.43
2016-04-22T05:49:58.292Z,991.38
2016-04-22T05:50:58.294Z,991.39
2016-04-22T05:51:58.297Z,991.35
2016-04-22T05:52:58.315Z,991.39
2016-04-22T05:53:58.317Z,991.4
2016-04-22T05:54:58.305Z,991.4
2016-04-22T05:55:58.308Z,991.43
2016-04-22T05:56:58.326Z,991.4
2016-04-22T05:57:58.313Z,991.36
2016-04-22T05:58:58.317Z,991.4
2016-04-22T05:59:58.319Z,991.38
2016-04-22T06:00:58.337Z,991.39
2016-04-22T06:01:58.339Z,991.38
2016-04-22T06:02:58.327Z,991.39
2016-04-22T06:03:58.330Z,991.42
2016-04-22T06:04:58.333Z,991.36
2016-04-22T06:05:58.335Z,991.4
2016-04-22T06:06:58.338Z,991.35
2016-04-22T06:07:58.341Z,991.39
2016-04-22T06:08:58.344Z,991.36
2016-04-22T06:09:58.345Z,991.41
2016-04-22T06:10:58.348Z,991.39
2016-04-22T06:11:58.351Z,991.4
2016-04-22T06:12:58.354Z,991.41
2016-04-22T06:13:58.356Z,991.37
2016-04-22T06:14:58.360Z,991.37
2016-04-22T06:15:58.345Z,991.4
2016-04-22T06:16:58.348Z,991.39
2016-04-22T06:17:58.351Z,991.41
2016-04-22T06:18:58.385Z,991.43
2016-04-22T06:19:58.372Z,991.43
2016-04-22T06:20:58.359Z,991.41
2016-04-22T06:21:58.378Z,991.38
2016-04-22T06:22:58.380Z,991.37
2016-04-22T06:23:58.367Z,991.36
2016-04-22T06:24:58.386Z,991.38
2016-04-22T06:25:58.389Z,991.38
2016-04-22T06:26:58.392Z,991.36
2016-04-22T06:27:58.394Z,991.35
2016-04-22T06:28:58.381Z,991.39
2016-04-22T06:29:58.399Z,991.41
2016-04-22T06:30:58.403Z,991.41
2016-04-22T06:31:58.389Z,991.39
2016-04-22T06:32:58.392Z,991.38
2016-04-22T06:33:58.411Z,991.36
2016-04-22T06:34:58.397Z,991.4
2016-04-22T06:35:58.416Z,991.32
2016-04-22T06:36:58.419Z,991.34
2016-04-22T06:37:58.421Z,991.35
2016-04-22T06:38:58.424Z,991.33
2016-04-22T06:39:58.426Z,991.36
2016-04-22T06:40:58.429Z,991.31
2016-04-22T06:41:58.432Z,991.33
2016-04-22T06:42:58.434Z,991.34
2016-04-22T06:43:58.452Z,991.33
2016-04-22T06:44:58.455Z,991.35
2016-04-22T06:45:58.458Z,991.34
2016-04-22T06:46:58.460Z,991.34
2016-04-22T06:47:58.463Z,991.36
2016-04-22T06:48:58.466Z,991.33
2016-04-22T06:49:58.485Z,991.37
2016-04-22T06:50:58.487Z,991.31
2016-04-22T06:51:58.490Z,991.32
2016-04-22T06:52:58.492Z,991.37
2016-04-22T06:53:58.496Z,991.35
2016-04-22T06:54:58.497Z,991.33
2016-04-22T06:55:58.516Z,991.34
2016-04-22T06:56:58.534Z,991.3
2016-04-22T06:57:58.537Z,991.29
2016-04-22T06:58:58.540Z,991.32
2016-04-22T06:59:58.543Z,991.29
2016-04-22T07:00:58.545Z,991.28
2016-04-22T07:01:58.547Z,991.23
2016-04-22T07:02:58.566Z,991.23
2016-04-22T07:03:58.569Z,991.25
2016-04-22T07:04:58.572Z,991.22
2016-04-22T07:05:58.574Z,991.21
2016-04-22T07:06:58.577Z,991.21
2016-04-22T07:07:58.611Z,991.21
2016-04-22T07:08:58.582Z,991.22
2016-04-22T07:09:58.600Z,991.19
2016-04-22T07:10:58.603Z,991.2
2016-04-22T07:11:58.606Z,991.2
2016-04-22T07:12:58.609Z,991.19
2016-04-22T07:13:58.627Z,991.2
2016-04-22T07:14:58.614Z,991.19
2016-04-22T07:15:58.632Z,991.16
2016-04-22T07:16:58.635Z,991.2
2016-04-22T07:17:58.638Z,991.19
2016-04-22T07:18:58.640Z,991.17
2016-04-22T07:19:58.768Z,991.22
2016-04-22T07:20:58.662Z,991.2
2016-04-22T07:21:58.664Z,991.19
2016-04-22T07:22:58.682Z,991.17
2016-04-22T07:23:58.670Z,991.13
2016-04-22T07:24:58.672Z,991.16
2016-04-22T07:25:58.690Z,991.17
2016-04-22T07:26:58.693Z,991.13
2016-04-22T07:27:58.695Z,991.1
2016-04-22T07:28:58.698Z,991.13
2016-04-22T07:29:58.701Z,991.14
2016-04-22T07:30:58.720Z,991.16
2016-04-22T07:31:58.739Z,991.18
2016-04-22T07:32:58.725Z,991.19
2016-04-22T07:33:58.727Z,991.18
2016-04-22T07:34:58.731Z,991.15
2016-04-22T07:35:58.749Z,991.16
2016-04-22T07:36:58.752Z,991.16
2016-04-22T07:37:58.755Z,991.14
2016-04-22T07:38:58.757Z,991.12
2016-04-22T07:39:58.775Z,991.1
2016-04-22T07:40:58.778Z,991.15
2016-04-22T07:41:58.765Z,991.09
2016-04-22T07:42:58.783Z,991.13
2016-04-22T07:43:58.786Z,991.16
2016-04-22T07:44:58.788Z,991.13
2016-04-22T07:45:58.791Z,991.14
2016-04-22T07:46:58.794Z,991.16
2016-04-22T07:47:58.796Z,991.17
2016-04-22T07:48:58.799Z,991.18
2016-04-22T07:49:58.818Z,991.17
2016-04-22T07:50:58.820Z,991.18
2016-04-22T07:51:58.823Z,991.13
2016-04-22T07:52:58.826Z,991.17
2016-04-22T07:53:58.843Z,991.16
2016-04-22T07:54:58.846Z,991.1
2016-04-22T07:55:58.834Z,991.12
2016-04-22T07:56:58.852Z,991.13
2016-04-22T07:57:58.855Z,991.13
2016-04-22T07:58:58.858Z,991.13
2016-04-22T07:59:58.876Z,991.14
2016-04-22T08:00:58.879Z,991.15
2016-04-22T08:01:58.881Z,991.13
2016-04-22T08:02:58.883Z,991.11
2016-04-22T08:03:58.887Z,991.14
2016-04-22T08:04:58.890Z,991.17
2016-04-22T08:05:58.891Z,991.14
2016-04-22T08:06:58.911Z,991.14
2016-04-22T08:07:58.913Z,991.15
2016-04-22T08:08:58.916Z,991.13
2016-04-22T08:09:58.919Z,991.11
2016-04-22T08:10:58.921Z,991.17
2016-04-22T08:11:58.924Z,991.09
2016-04-22T08:12:58.942Z,991.1
2016-04-22T08:13:58.929Z,991.07
2016-04-22T08:14:58.947Z,991.1
2016-04-22T08:15:58.950Z,991.06
2016-04-22T08:16:58.952Z,991.05
2016-04-22T08:17:58.955Z,991.05
2016-04-22T08:18:58.958Z,991.05
2016-04-22T08:19:58.961Z,991.04
2016-04-22T08:20:58.979Z,991.04
2016-04-22T08:21:58.982Z,991.06
2016-04-22T08:22:58.985Z,991.05
2016-04-22T08:23:58.987Z,991.09
2016-04-22T08:24:58.990Z,991.08
2016-04-22T08:25:58.993Z,991.07
2016-04-22T08:26:59.011Z,991.1
2016-04-22T08:27:59.060Z,991.08
2016-04-22T08:28:59.017Z,991.1
2016-04-22T08:29:59.019Z,991.11
2016-04-22T08:30:59.022Z,991.11
2016-04-22T08:31:59.025Z,991.09
2016-04-22T08:32:59.027Z,991.09
2016-04-22T08:33:59.045Z,991.13
2016-04-22T08:34:59.048Z,991.09
2016-04-22T08:35:59.081Z,991.14
2016-04-22T08:36:59.132Z,991.1
2016-04-22T08:37:59.134Z,991.11
2016-04-22T08:38:59.089Z,991.1
2016-04-22T08:39:59.077Z,991.09
2016-04-22T08:40:59.080Z,991.08
2016-04-22T08:41:59.083Z,991.09
2016-04-22T08:42:59.086Z,991.06
2016-04-22T08:43:59.088Z,991.09
2016-04-22T08:44:59.106Z,991.11
2016-04-22T08:45:59.125Z,991.08
2016-04-22T08:46:59.111Z,991.09
2016-04-22T08:47:59.114Z,991.1
2016-04-22T08:48:59.133Z,991.12
2016-04-22T08:49:59.135Z,991.12
2016-04-22T08:50:59.154Z,991.13
2016-04-22T08:51:59.140Z,991.13
2016-04-22T08:52:59.160Z,991.14
2016-04-22T08:53:59.162Z,991.12
2016-04-22T08:54:59.180Z,991.13
2016-04-22T08:55:59.168Z,991.13
2016-04-22T08:56:59.185Z,991.12
2016-04-22T08:57:59.187Z,991.12
2016-04-22T08:58:59.190Z,991.12
2016-04-22T08:59:59.194Z,991.12
2016-04-22T09:00:59.212Z,991.15
2016-04-22T09:01:59.215Z,991.11
2016-04-22T09:02:59.217Z,991.1
2016-04-22T09:03:59.220Z,991.1
2016-04-22T09:04:59.223Z,991.06
2016-04-22T09:05:59.225Z,991.06
2016-04-22T09:06:59.228Z,991.02
2016-04-22T09:07:59.231Z,991.04
2016-04-22T09:08:59.250Z,991.01
2016-04-22T09:09:59.252Z,991
2016-04-22T09:10:59.255Z,991.03
2016-04-22T09:11:59.257Z,991.02
2016-04-22T09:12:59.260Z,991.02
2016-04-22T09:13:59.277Z,991
2016-04-22T09:14:59.265Z,991
2016-04-22T09:15:59.269Z,990.99
2016-04-22T09:16:59.286Z,990.94
2016-04-22T09:17:59.289Z,990.99
2016-04-22T09:18:59.291Z,990.95
2016-04-22T09:19:59.294Z,990.92
2016-04-22T09:20:59.297Z,990.95
2016-04-22T09:21:59.299Z,990.92
2016-04-22T09:22:59.302Z,990.89
2016-04-22T09:23:59.312Z,990.92
2016-04-22T09:24:59.314Z,990.93
2016-04-22T09:25:59.317Z,990.88
2016-04-22T09:26:59.336Z,990.9
2016-04-22T09:27:59.322Z,990.89
2016-04-22T09:28:59.342Z,990.9
2016-04-22T09:29:59.344Z,990.92
2016-04-22T09:30:59.346Z,990.89
2016-04-22T09:31:59.350Z,990.87
2016-04-22T09:32:59.367Z,990.9
2016-04-22T09:33:59.354Z,990.87
2016-04-22T09:34:59.373Z,990.86
2016-04-22T09:35:59.376Z,990.91
2016-04-22T09:36:59.378Z,990.89
2016-04-22T09:37:59.382Z,990.84
2016-04-22T09:38:59.384Z,990.86
2016-04-22T09:39:59.387Z,990.82
2016-04-22T09:40:59.405Z,990.8
2016-04-22T09:41:59.408Z,990.75
2016-04-22T09:42:59.395Z,990.78
2016-04-22T09:43:59.413Z,990.75
2016-04-22T09:44:59.416Z,990.75
2016-04-22T09:45:59.419Z,990.74
2016-04-22T09:46:59.422Z,990.78
2016-04-22T09:47:59.425Z,990.77
2016-04-22T09:48:59.427Z,990.7
2016-04-22T09:49:59.446Z,990.71
2016-04-22T09:50:59.448Z,990.71
2016-04-22T09:51:59.451Z,990.71
2016-04-22T09:52:59.453Z,990.73
2016-04-22T09:53:59.456Z,990.73
2016-04-22T09:54:59.474Z,990.75
2016-04-22T09:55:59.462Z,990.73
2016-04-22T09:56:59.480Z,990.73
2016-04-22T09:57:59.482Z,990.67
2016-04-22T09:58:59.485Z,990.69
2016-04-22T09:59:59.487Z,990.67
2016-04-22T10:00:59.506Z,990.63
2016-04-22T10:01:59.509Z,990.64
2016-04-22T10:02:59.511Z,990.62
2016-04-22T10:03:59.515Z,990.61
2016-04-22T10:04:59.516Z,990.57
2016-04-22T10:05:59.520Z,990.51
2016-04-22T10:06:59.522Z,990.55
2016-04-22T10:13:32.165Z,990.52
2016-04-22T10:14:32.168Z,990.5
2016-04-22T10:15:32.171Z,990.45
2016-04-22T10:16:32.189Z,990.51
2016-04-22T10:17:32.191Z,990.51
2016-04-22T10:18:32.194Z,990.47
2016-04-22T10:19:32.197Z,990.46
2016-04-22T10:20:32.200Z,990.46
2016-04-22T10:21:32.202Z,990.45
2016-04-22T10:22:32.205Z,990.44
2016-04-22T10:23:32.207Z,990.43
2016-04-22T10:24:32.226Z,990.48
2016-04-22T10:25:32.229Z,990.47
2016-04-22T10:26:32.231Z,990.52
2016-04-22T10:27:32.234Z,990.48
2016-04-22T10:28:32.237Z,990.44
2016-04-22T10:29:32.256Z,990.43
2016-04-22T10:30:32.242Z,990.41
2016-04-22T10:31:32.261Z,990.37
2016-04-22T10:32:32.264Z,990.45
2016-04-22T10:33:32.267Z,990.35
2016-04-22T10:34:32.270Z,990.36
2016-04-22T10:35:32.272Z,990.26
2016-04-22T10:36:32.274Z,990.3
2016-04-22T10:37:32.277Z,990.31
2016-04-22T10:38:32.295Z,990.34
2016-04-22T10:39:32.298Z,990.36
2016-04-22T10:40:32.300Z,990.33
2016-04-22T10:41:32.303Z,990.32
2016-04-22T10:42:32.306Z,990.3
2016-04-22T10:43:32.325Z,990.32
2016-04-22T10:44:32.327Z,990.28
2016-04-22T10:45:32.330Z,990.25
2016-04-22T10:46:32.332Z,990.3
2016-04-22T10:47:32.335Z,990.28
2016-04-22T10:48:32.354Z,990.24
2016-04-22T10:49:32.356Z,990.25
2016-04-22T10:50:32.359Z,990.23
2016-04-22T10:51:32.361Z,990.22
2016-04-22T10:52:32.364Z,990.19
2016-04-22T10:53:32.382Z,990.16
2016-04-22T10:54:32.385Z,990.12
2016-04-22T10:55:32.372Z,990.1
2016-04-22T10:56:32.390Z,990.13
2016-04-22T10:57:32.393Z,990.08
2016-04-22T10:58:32.395Z,990.05
2016-04-22T10:59:32.414Z,990.09
2016-04-22T11:00:32.417Z,990.11
2016-04-22T11:01:32.420Z,990.08
2016-04-22T11:02:32.422Z,990.1
2016-04-22T11:03:32.440Z,990.13
2016-04-22T11:04:32.442Z,990.11
2016-04-22T11:05:32.446Z,990.1
2016-04-22T11:06:32.449Z,990.19
2016-04-22T11:07:32.449Z,990.17
2016-04-22T11:08:32.467Z,990.18
2016-04-22T11:09:32.453Z,990.16
2016-04-22T11:10:32.456Z,990.19
2016-04-22T11:11:32.475Z,990.2
2016-04-22T11:12:32.477Z,990.19
2016-04-22T11:13:32.480Z,990.18
2016-04-22T11:14:32.483Z,990.18
2016-04-22T11:15:32.486Z,990.12
2016-04-22T11:16:32.519Z,990.17
2016-04-22T11:17:32.522Z,990.12
2016-04-22T11:18:32.509Z,990.13
2016-04-22T11:19:32.512Z,990.1
2016-04-22T11:20:32.515Z,990.09
2016-04-22T11:21:32.533Z,990.07
2016-04-22T11:22:32.536Z,990.05
2016-04-22T11:23:32.529Z,990.02
2016-04-22T11:24:32.532Z,990.03
2016-04-22T11:25:32.551Z,990.05
2016-04-22T11:26:32.553Z,990
2016-04-22T11:27:32.556Z,990.03
2016-04-22T11:28:32.575Z,990.02
2016-04-22T11:29:32.578Z,989.99
2016-04-22T11:30:32.580Z,989.98
2016-04-22T11:31:32.583Z,990
2016-04-22T11:32:32.617Z,989.97
2016-04-22T11:33:32.589Z,989.97
2016-04-22T11:34:32.606Z,989.9
2016-04-22T11:35:32.608Z,989.92
2016-04-22T11:36:32.628Z,989.92
2016-04-22T11:37:32.630Z,989.93
2016-04-22T11:38:32.616Z,989.91
2016-04-22T11:39:32.635Z,989.84
2016-04-22T11:40:32.638Z,989.88
2016-04-22T11:41:32.641Z,989.88
2016-04-22T11:42:32.643Z,989.88
2016-04-22T11:43:32.662Z,989.86
2016-04-22T11:44:32.665Z,989.88
2016-04-22T11:45:32.668Z,989.88
2016-04-22T11:46:32.670Z,989.84
2016-04-22T11:47:32.687Z,989.82
2016-04-22T11:48:32.690Z,989.87
2016-04-22T11:49:32.693Z,989.93
2016-04-22T11:50:32.712Z,989.9
2016-04-22T11:51:32.714Z,989.88
2016-04-22T11:52:32.717Z,989.91
2016-04-22T11:53:32.720Z,989.9
2016-04-22T11:54:32.723Z,989.92
2016-04-22T11:55:32.725Z,989.91
2016-04-22T11:56:32.743Z,989.92
2016-04-22T11:57:32.745Z,989.96
2016-04-22T11:58:32.749Z,989.89
2016-04-22T11:59:32.751Z,989.89
2016-04-22T12:00:32.754Z,989.93
2016-04-22T12:01:32.773Z,989.89
2016-04-22T12:02:32.775Z,989.94
2016-04-22T12:03:32.778Z,989.94
2016-04-22T12:04:32.797Z,989.91
2016-04-22T12:05:32.783Z,989.9
2016-04-22T12:06:32.802Z,989.91
2016-04-22T12:07:32.805Z,989.94
2016-04-22T12:08:32.963Z,989.91
2016-04-22T12:09:32.810Z,989.88
2016-04-22T12:10:32.813Z,989.94
2016-04-22T12:11:32.830Z,989.88
2016-04-22T12:12:32.833Z,989.9
2016-04-22T12:13:32.835Z,989.88
2016-04-22T12:14:32.838Z,989.89
2016-04-22T12:15:32.857Z,989.96
2016-04-22T12:16:32.844Z,989.97
2016-04-22T12:17:32.863Z,989.92
2016-04-22T12:18:32.866Z,989.89
2016-04-22T12:19:34.948Z,989.9
2016-04-22T12:20:32.888Z,989.91
2016-04-22T12:21:32.875Z,989.93
2016-04-22T12:22:32.878Z,989.89
2016-04-22T12:23:32.897Z,989.81
2016-04-22T12:24:32.899Z,989.84
2016-04-22T12:25:32.902Z,989.81
2016-04-22T12:26:32.919Z,989.81
2016-04-22T12:27:32.922Z,989.79
2016-04-22T12:28:32.925Z,989.85
2016-04-22T12:29:32.928Z,989.84
2016-04-22T12:30:32.931Z,989.83
2016-04-22T12:31:32.933Z,989.83
2016-04-22T12:32:32.936Z,989.88
2016-04-22T12:33:32.938Z,989.81
2016-04-22T12:34:32.957Z,989.8
2016-04-22T12:35:32.975Z,989.81
2016-04-22T12:36:32.963Z,989.8
2016-04-22T12:37:32.966Z,989.81